createdAt,value
2023-05-01T00:01:47.537Z,80.92
2023-05-01T00:04:17.176Z,79.92
2023-05-01T00:06:45.449Z,79.71
2023-05-01T00:09:13.639Z,80.12
2023-05-01T00:11:41.981Z,80.06
2023-05-01T00:14:09.999Z,80.43
2023-05-01T00:16:39.517Z,80.50
2023-05-01T00:19:08.852Z,79.46
2023-05-01T00:21:37.253Z,79.89
2023-05-01T00:24:05.827Z,79.44
2023-05-01T00:26:33.910Z,78.77
2023-05-01T00:29:03.157Z,81.37
2023-05-01T00:31:37.190Z,81.60
2023-05-01T00:34:06.581Z,83.26
2023-05-01T00:36:34.834Z,81.83
2023-05-01T00:39:02.828Z,81.54
2023-05-01T00:41:30.796Z,82.86
2023-05-01T00:43:58.980Z,83.46
2023-05-01T00:46:27.712Z,82.91
2023-05-01T00:48:55.873Z,82.84
2023-05-01T00:51:28.157Z,84.17
2023-05-01T00:54:00.970Z,83.21
2023-05-01T00:56:29.285Z,81.95
2023-05-01T00:58:57.571Z,81.08
2023-05-01T01:01:26.283Z,81.28
2023-05-01T01:03:54.843Z,82.64
2023-05-01T01:06:34.906Z,83.15
2023-05-01T01:09:14.653Z,83.34
2023-05-01T01:11:53.408Z,82.34
2023-05-01T01:14:27.677Z,83.11
2023-05-01T01:17:04.580Z,82.92
2023-05-01T01:20:02.863Z,84.57
2023-05-01T01:22:36.580Z,84.00
2023-05-01T01:25:31.155Z,84.89
2023-05-01T01:28:36.975Z,84.17
2023-05-01T01:31:15.299Z,83.28
2023-05-01T01:34:09.574Z,82.80
2023-05-01T01:36:44.649Z,82.49
2023-05-01T01:39:20.276Z,81.99
2023-05-01T01:41:52.565Z,81.83
2023-05-01T01:44:29.687Z,82.09
2023-05-01T01:47:00.854Z,82.46
2023-05-01T01:49:32.644Z,83.32
2023-05-01T01:52:03.153Z,83.53
2023-05-01T01:54:34.684Z,83.60
2023-05-01T01:57:08.527Z,84.36
2023-05-01T01:59:36.784Z,85.55
2023-05-01T02:02:06.818Z,85.45
2023-05-01T02:04:37.520Z,85.54
2023-05-01T02:07:07.283Z,85.84
2023-05-01T02:09:37.136Z,86.36
2023-05-01T02:12:08.476Z,86.94
2023-05-01T02:14:38.461Z,87.52
2023-05-01T02:17:07.656Z,87.47
2023-05-01T02:19:40.845Z,87.30
2023-05-01T02:22:10.466Z,86.45
2023-05-01T02:24:40.014Z,85.01
2023-05-01T02:27:12.599Z,84.55
2023-05-01T02:29:41.006Z,83.63
2023-05-01T02:32:09.274Z,84.39
2023-05-01T02:34:42.173Z,85.63
2023-05-01T02:37:12.583Z,87.13
2023-05-01T02:39:43.163Z,86.93
2023-05-01T02:42:14.122Z,85.64
2023-05-01T02:44:50.925Z,84.83
2023-05-01T02:47:22.021Z,84.58
2023-05-01T02:49:53.943Z,85.40
2023-05-01T02:52:23.174Z,84.76
2023-05-01T02:55:00.617Z,84.95
2023-05-01T02:57:29.355Z,84.60
2023-05-01T02:59:57.728Z,85.16
2023-05-01T03:02:26.130Z,84.66
2023-05-01T03:04:58.873Z,84.51
2023-05-01T03:07:27.049Z,84.34
2023-05-01T03:09:55.503Z,84.28
2023-05-01T03:12:24.011Z,83.69
2023-05-01T03:14:52.516Z,84.13
2023-05-01T03:17:20.475Z,86.04
2023-05-01T03:19:49.557Z,88.04
2023-05-01T03:22:20.228Z,89.57
2023-05-01T03:24:48.269Z,88.29
2023-05-01T03:27:16.405Z,86.49
2023-05-01T03:29:44.538Z,84.78
2023-05-01T03:32:12.729Z,84.37
2023-05-01T03:34:41.277Z,88.85
2023-05-01T03:37:09.277Z,87.96
2023-05-01T03:39:38.936Z,86.66
2023-05-01T03:42:26.279Z,84.68
2023-05-01T03:45:00.499Z,84.94
2023-05-01T03:47:30.329Z,84.67
2023-05-01T03:49:59.074Z,84.06
2023-05-01T03:52:27.725Z,83.28
2023-05-01T03:54:59.527Z,82.89
2023-05-01T03:57:48.326Z,83.35
2023-05-01T04:00:18.952Z,85.41
2023-05-01T04:02:49.296Z,85.54
2023-05-01T04:05:22.135Z,85.00
2023-05-01T04:07:58.220Z,85.20
2023-05-01T04:10:28.379Z,87.15
2023-05-01T04:13:01.323Z,86.58
2023-05-01T04:15:29.208Z,85.88
2023-05-01T04:17:57.774Z,85.10
2023-05-01T04:20:25.864Z,84.56
2023-05-01T04:22:54.988Z,84.46
2023-05-01T04:25:23.001Z,83.82
2023-05-01T04:27:55.640Z,83.28
2023-05-01T04:30:23.631Z,85.06
2023-05-01T04:32:52.811Z,85.45
2023-05-01T04:35:21.113Z,85.66
2023-05-01T04:37:49.078Z,85.91
2023-05-01T04:40:17.455Z,85.10
2023-05-01T04:42:46.069Z,84.35
2023-05-01T04:45:17.219Z,84.80
2023-05-01T04:47:45.314Z,85.05
2023-05-01T04:50:13.325Z,84.75
2023-05-01T04:52:41.626Z,84.15
2023-05-01T04:55:11.425Z,83.78
2023-05-01T04:57:48.300Z,84.49
2023-05-01T05:00:19.102Z,83.71
2023-05-01T05:02:54.218Z,83.87
2023-05-01T05:05:22.554Z,83.85
2023-05-01T05:07:51.479Z,83.46
2023-05-01T05:10:30.274Z,83.60
2023-05-01T05:13:27.382Z,84.31
2023-05-01T05:16:15.761Z,84.63
2023-05-01T05:18:43.903Z,84.01
2023-05-01T05:21:12.398Z,84.39
2023-05-01T05:23:46.060Z,85.39
2023-05-01T05:26:13.980Z,88.53
2023-05-01T05:28:45.179Z,86.50
2023-05-01T05:31:15.210Z,84.93
2023-05-01T05:33:43.344Z,83.42
2023-05-01T05:36:12.034Z,82.04
2023-05-01T05:38:43.234Z,82.23
2023-05-01T05:41:15.281Z,81.06
2023-05-01T05:43:43.453Z,79.80
2023-05-01T05:46:11.687Z,79.26
2023-05-01T05:48:42.135Z,79.96
2023-05-01T05:51:10.709Z,79.29
2023-05-01T05:53:38.756Z,78.59
2023-05-01T05:56:07.809Z,78.63
2023-05-01T05:58:35.960Z,78.12
2023-05-01T06:01:04.196Z,80.20
2023-05-01T06:03:32.753Z,79.17
2023-05-01T06:06:04.683Z,78.56
2023-05-01T06:08:35.425Z,78.78
2023-05-01T06:11:12.244Z,80.43
2023-05-01T06:13:44.930Z,80.53
2023-05-01T06:16:13.021Z,81.89
2023-05-01T06:18:41.099Z,83.51
2023-05-01T06:21:12.104Z,84.06
2023-05-01T06:23:41.584Z,83.40
2023-05-01T06:26:34.802Z,82.20
2023-05-01T06:29:16.709Z,81.67
2023-05-01T06:31:45.753Z,82.01
2023-05-01T06:34:13.777Z,81.54
2023-05-01T06:36:50.842Z,80.67
2023-05-01T06:39:18.817Z,81.58
2023-05-01T06:41:47.485Z,80.45
2023-05-01T06:44:16.371Z,78.69
2023-05-01T06:46:44.436Z,78.80
2023-05-01T06:49:13.889Z,78.72
2023-05-01T06:51:42.002Z,78.05
2023-05-01T06:54:11.382Z,79.34
2023-05-01T06:56:39.760Z,78.51
2023-05-01T06:59:07.723Z,77.01
2023-05-01T07:01:35.826Z,77.19
2023-05-01T07:04:04.090Z,75.72
2023-05-01T07:06:32.570Z,74.82
2023-05-01T07:09:00.567Z,75.12
2023-05-01T07:11:29.944Z,75.50
2023-05-01T07:13:57.924Z,75.68
2023-05-01T07:16:26.137Z,75.28
2023-05-01T07:18:54.087Z,76.91
2023-05-01T07:21:47.474Z,77.16
2023-05-01T07:24:15.312Z,76.40
2023-05-01T07:26:44.699Z,76.16
2023-05-01T07:29:13.269Z,76.73
2023-05-01T07:31:41.938Z,76.39
2023-05-01T07:34:10.272Z,76.13
2023-05-01T07:36:38.808Z,75.96
2023-05-01T07:39:07.345Z,76.86
2023-05-01T07:41:37.636Z,78.20
2023-05-01T07:44:07.010Z,77.00
2023-05-01T07:46:35.241Z,76.70
2023-05-01T07:49:04.241Z,75.51
2023-05-01T07:51:32.658Z,74.91
2023-05-01T07:54:04.875Z,74.43
2023-05-01T07:56:33.343Z,73.17
2023-05-01T07:59:03.586Z,76.09
2023-05-01T08:01:35.121Z,76.08
2023-05-01T08:04:03.094Z,76.00
2023-05-01T08:06:31.833Z,76.23
2023-05-01T08:09:03.075Z,74.38
2023-05-01T08:11:33.445Z,74.57
2023-05-01T08:14:01.418Z,74.22
2023-05-01T08:16:29.427Z,74.69
2023-05-01T08:18:58.852Z,73.98
2023-05-01T08:21:26.832Z,72.53
2023-05-01T08:23:57.038Z,73.82
2023-05-01T08:26:25.219Z,74.18
2023-05-01T08:28:53.203Z,72.73
2023-05-01T08:31:21.408Z,72.42
2023-05-01T08:33:49.598Z,71.94
2023-05-01T08:36:21.254Z,72.12
2023-05-01T08:38:49.478Z,71.84
2023-05-01T08:41:17.932Z,70.70
2023-05-01T08:43:45.958Z,68.14
2023-05-01T08:46:16.828Z,67.58
2023-05-01T08:48:46.970Z,70.33
2023-05-01T08:51:22.996Z,69.47
2023-05-01T08:53:54.112Z,66.97
2023-05-01T08:56:24.055Z,66.22
2023-05-01T08:58:55.309Z,64.09
2023-05-01T09:01:24.595Z,64.07
2023-05-01T09:03:54.836Z,66.77
2023-05-01T09:06:25.854Z,65.08
2023-05-01T09:08:54.050Z,66.15
2023-05-01T09:11:25.390Z,63.79
2023-05-01T09:13:55.931Z,63.70
2023-05-01T09:16:24.772Z,61.29
2023-05-01T09:18:56.497Z,62.31
2023-05-01T09:21:29.324Z,60.92
2023-05-01T09:23:57.439Z,62.97
2023-05-01T09:26:26.877Z,61.91
2023-05-01T09:28:58.065Z,62.29
2023-05-01T09:31:29.080Z,62.66
2023-05-01T09:33:59.510Z,62.40
2023-05-01T09:36:34.821Z,63.81
2023-05-01T09:39:06.007Z,65.49
2023-05-01T09:41:39.237Z,65.15
2023-05-01T09:44:22.065Z,65.86
2023-05-01T09:47:12.670Z,63.68
2023-05-01T09:49:53.952Z,64.41
2023-05-01T09:52:37.340Z,63.47
2023-05-01T09:55:18.524Z,58.35
2023-05-01T09:57:59.753Z,62.17
2023-05-01T10:00:31.115Z,62.03
2023-05-01T10:02:59.195Z,57.63
2023-05-01T10:05:44.170Z,56.56
2023-05-01T10:08:15.142Z,58.96
2023-05-01T10:10:47.153Z,60.69
2023-05-01T10:13:16.139Z,63.47
2023-05-01T10:15:47.671Z,63.18
2023-05-01T10:18:34.341Z,60.99
2023-05-01T10:21:17.100Z,59.75
2023-05-01T10:23:48.029Z,60.58
2023-05-01T10:26:19.581Z,61.72
2023-05-01T10:28:49.548Z,60.59
2023-05-01T10:31:19.441Z,58.53
2023-05-01T10:33:48.646Z,57.86
2023-05-01T10:36:23.073Z,61.92
2023-05-01T10:38:54.185Z,58.50
2023-05-01T10:41:55.604Z,61.20
2023-05-01T10:44:25.728Z,60.60
2023-05-01T10:46:56.073Z,60.68
2023-05-01T10:49:24.529Z,57.57
2023-05-01T10:52:03.776Z,59.51
2023-05-01T10:54:33.155Z,56.58
2023-05-01T10:57:03.543Z,58.28
2023-05-01T11:00:11.204Z,57.81
2023-05-01T11:02:39.469Z,58.71
2023-05-01T11:05:08.080Z,57.33
2023-05-01T11:07:36.240Z,57.30
2023-05-01T11:10:28.778Z,57.13
2023-05-01T11:12:56.918Z,55.74
2023-05-01T11:15:32.306Z,55.39
2023-05-01T11:18:00.999Z,54.43
2023-05-01T11:20:51.729Z,57.24
2023-05-01T11:23:22.133Z,57.69
2023-05-01T11:25:51.704Z,55.96
2023-05-01T11:28:22.957Z,54.63
2023-05-01T11:30:51.620Z,56.44
2023-05-01T11:33:27.626Z,55.94
2023-05-01T11:36:03.192Z,56.47
2023-05-01T11:38:31.092Z,54.78
2023-05-01T11:41:05.586Z,55.76
2023-05-01T11:43:34.134Z,55.88
2023-05-01T11:46:05.178Z,56.37
2023-05-01T11:48:33.466Z,56.62
2023-05-01T11:51:01.619Z,58.46
2023-05-01T11:53:30.349Z,57.58
2023-05-01T11:55:59.472Z,57.34
2023-05-01T11:58:36.619Z,58.75
2023-05-01T12:01:07.255Z,56.96
2023-05-01T12:03:43.123Z,57.32
2023-05-01T12:06:15.051Z,55.19
2023-05-01T12:08:45.526Z,56.89
2023-05-01T12:11:13.774Z,55.83
2023-05-01T12:13:43.975Z,54.44
2023-05-01T12:16:12.184Z,55.94
2023-05-01T12:18:42.155Z,54.58
2023-05-01T12:21:25.811Z,56.10
2023-05-01T12:23:56.254Z,53.87
2023-05-01T12:26:26.288Z,54.31
2023-05-01T12:28:58.254Z,53.71
2023-05-01T12:31:27.510Z,53.03
2023-05-01T12:33:58.619Z,52.88
2023-05-01T12:36:29.439Z,52.60
2023-05-01T12:39:00.742Z,52.30
2023-05-01T12:41:39.188Z,51.83
2023-05-01T12:44:23.921Z,51.17
2023-05-01T12:46:56.437Z,51.76
2023-05-01T12:49:26.002Z,51.25
2023-05-01T12:51:55.456Z,52.18
2023-05-01T12:54:26.370Z,56.79
2023-05-01T12:57:06.583Z,54.75
2023-05-01T12:59:37.462Z,54.98
2023-05-01T13:02:07.124Z,57.45
2023-05-01T13:04:37.827Z,57.30
2023-05-01T13:07:12.651Z,57.95
2023-05-01T13:09:53.178Z,57.30
2023-05-01T13:12:21.473Z,57.56
2023-05-01T13:14:51.806Z,57.06
2023-05-01T13:17:26.049Z,56.80
2023-05-01T13:19:55.916Z,56.25
2023-05-01T13:22:32.438Z,58.38
2023-05-01T13:25:01.387Z,58.36
2023-05-01T13:27:29.860Z,58.12
2023-05-01T13:30:01.183Z,56.44
2023-05-01T13:32:33.113Z,57.32
2023-05-01T13:35:03.221Z,56.53
2023-05-01T13:37:32.524Z,59.44
2023-05-01T13:40:00.808Z,59.33
2023-05-01T13:42:29.131Z,57.67
2023-05-01T13:45:06.261Z,59.80
2023-05-01T13:47:34.442Z,59.69
2023-05-01T13:50:02.690Z,61.13
2023-05-01T13:52:33.550Z,60.94
2023-05-01T13:55:08.465Z,67.75
2023-05-01T13:57:40.562Z,65.55
2023-05-01T14:00:17.541Z,64.01
2023-05-01T14:02:48.394Z,65.13
2023-05-01T14:05:17.283Z,63.46
2023-05-01T14:07:52.035Z,63.91
2023-05-01T14:10:20.478Z,66.03
2023-05-01T14:12:48.649Z,62.79
2023-05-01T14:15:18.937Z,63.32
2023-05-01T14:17:48.530Z,63.93
2023-05-01T14:20:18.141Z,64.98
2023-05-01T14:22:51.681Z,64.45
2023-05-01T14:25:27.468Z,65.75
2023-05-01T14:27:56.666Z,65.10
2023-05-01T14:30:30.084Z,64.28
2023-05-01T14:32:58.335Z,63.71
2023-05-01T14:35:26.540Z,62.97
2023-05-01T14:37:55.511Z,61.83
2023-05-01T14:40:33.876Z,62.37
2023-05-01T14:43:02.687Z,61.93
2023-05-01T14:45:32.441Z,60.90
2023-05-01T14:48:00.558Z,58.85
2023-05-01T14:50:28.680Z,62.38
2023-05-01T14:52:57.935Z,62.71
2023-05-01T14:55:29.410Z,62.63
2023-05-01T14:57:58.268Z,61.02
2023-05-01T15:00:26.798Z,61.50
2023-05-01T15:02:56.482Z,62.53
2023-05-01T15:05:26.178Z,61.56
2023-05-01T15:07:56.445Z,61.59
2023-05-01T15:10:24.915Z,61.85
2023-05-01T15:12:53.286Z,61.05
2023-05-01T15:15:21.936Z,62.12
2023-05-01T15:17:52.230Z,62.44
2023-05-01T15:20:21.842Z,62.89
2023-05-01T15:22:49.843Z,62.16
2023-05-01T15:25:18.464Z,62.49
2023-05-01T15:27:47.229Z,60.37
2023-05-01T15:30:16.165Z,62.37
2023-05-01T15:32:44.206Z,61.66
2023-05-01T15:35:12.904Z,61.85
2023-05-01T15:37:44.005Z,61.31
2023-05-01T15:40:12.372Z,61.75
2023-05-01T15:42:41.727Z,61.14
2023-05-01T15:45:11.988Z,61.20
2023-05-01T15:47:41.684Z,62.04
2023-05-01T15:50:13.442Z,60.60
2023-05-01T15:52:44.945Z,60.70
2023-05-01T15:55:17.423Z,60.40
2023-05-01T15:58:03.811Z,59.91
2023-05-01T16:00:39.258Z,61.11
2023-05-01T16:03:23.937Z,59.21
2023-05-01T16:06:19.932Z,63.72
2023-05-01T16:08:54.236Z,68.50
2023-05-01T16:11:30.017Z,67.78
2023-05-01T16:14:20.837Z,68.09
2023-05-01T16:16:58.059Z,67.50
2023-05-01T16:19:38.722Z,69.10
2023-05-01T16:22:23.553Z,70.33
2023-05-01T16:25:05.980Z,70.13
2023-05-01T16:27:34.751Z,70.33
2023-05-01T16:30:10.167Z,70.68
2023-05-01T16:32:41.872Z,71.03
2023-05-01T16:35:13.265Z,71.19
2023-05-01T16:37:48.828Z,71.12
2023-05-01T16:40:20.665Z,73.18
2023-05-01T16:42:51.895Z,75.22
2023-05-01T16:45:21.813Z,76.13
2023-05-01T16:47:50.181Z,79.55
2023-05-01T16:50:20.588Z,80.76
2023-05-01T16:52:50.342Z,78.40
2023-05-01T16:55:21.264Z,80.00
2023-05-01T16:57:50.123Z,79.68
2023-05-01T17:00:21.485Z,82.58
2023-05-01T17:02:54.153Z,82.82
2023-05-01T17:05:24.317Z,80.96
2023-05-01T17:07:53.642Z,80.89
2023-05-01T17:10:26.081Z,82.92
2023-05-01T17:12:54.913Z,83.18
2023-05-01T17:15:24.034Z,81.84
2023-05-01T17:17:52.521Z,82.75
2023-05-01T17:20:21.387Z,86.06
2023-05-01T17:22:50.041Z,84.57
2023-05-01T17:25:19.817Z,85.84
2023-05-01T17:27:51.755Z,88.04
2023-05-01T17:30:21.225Z,87.34
2023-05-01T17:32:51.516Z,85.44
2023-05-01T17:35:19.807Z,87.08
2023-05-01T17:37:48.742Z,86.67
2023-05-01T17:40:16.848Z,86.74
2023-05-01T17:42:45.597Z,86.09
2023-05-01T17:45:20.552Z,87.06
2023-05-01T17:47:54.118Z,88.00
2023-05-01T17:50:29.285Z,87.18
2023-05-01T17:53:18.557Z,85.28
2023-05-01T17:55:46.799Z,86.34
2023-05-01T17:58:14.992Z,85.33
2023-05-01T18:00:44.386Z,84.70
2023-05-01T18:03:13.595Z,84.76
2023-05-01T18:05:56.568Z,87.83
2023-05-01T18:08:24.572Z,88.15
2023-05-01T18:10:52.667Z,89.62
2023-05-01T18:13:27.735Z,89.60
2023-05-01T18:15:58.657Z,89.72
2023-05-01T18:18:26.752Z,90.53
2023-05-01T18:20:55.263Z,91.07
2023-05-01T18:23:26.063Z,89.81
2023-05-01T18:25:56.222Z,89.96
2023-05-01T18:28:24.330Z,89.10
2023-05-01T18:30:52.914Z,88.62
2023-05-01T18:33:23.192Z,88.80
2023-05-01T18:35:51.404Z,88.13
2023-05-01T18:38:19.876Z,87.83
2023-05-01T18:40:48.808Z,88.74
2023-05-01T18:43:16.961Z,89.65
2023-05-01T18:45:47.204Z,88.95
2023-05-01T18:48:16.206Z,88.37
2023-05-01T18:51:06.732Z,87.49
2023-05-01T18:53:39.615Z,89.11
2023-05-01T18:56:09.597Z,89.22
2023-05-01T18:58:39.313Z,89.40
2023-05-01T19:01:07.834Z,89.76
2023-05-01T19:03:36.392Z,90.26
2023-05-01T19:06:10.593Z,89.24
2023-05-01T19:08:39.266Z,89.21
2023-05-01T19:11:07.424Z,88.87
2023-05-01T19:13:35.702Z,88.71
2023-05-01T19:16:10.208Z,88.94
2023-05-01T19:19:02.590Z,88.99
2023-05-01T19:21:32.339Z,88.11
2023-05-01T19:24:00.683Z,89.33
2023-05-01T19:26:29.637Z,89.05
2023-05-01T19:29:02.488Z,89.26
2023-05-01T19:31:36.476Z,89.30
2023-05-01T19:34:04.846Z,89.26
2023-05-01T19:36:34.498Z,89.15
2023-05-01T19:39:04.294Z,88.88
2023-05-01T19:41:33.699Z,89.80
2023-05-01T19:44:02.408Z,93.16
2023-05-01T19:46:30.564Z,96.56
2023-05-01T19:48:58.837Z,96.14
2023-05-01T19:51:26.806Z,94.84
2023-05-01T19:53:56.994Z,95.09
2023-05-01T19:56:25.660Z,94.78
2023-05-01T19:58:54.990Z,96.49
2023-05-01T20:01:23.164Z,95.81
2023-05-01T20:03:51.716Z,96.47
2023-05-01T20:06:20.061Z,96.79
2023-05-01T20:08:48.689Z,96.35
2023-05-01T20:11:20.802Z,94.91
2023-05-01T20:13:48.718Z,94.45
2023-05-01T20:16:17.078Z,94.65
2023-05-01T20:18:45.575Z,95.42
2023-05-01T20:21:13.585Z,95.72
2023-05-01T20:23:42.115Z,96.42
2023-05-01T20:26:13.075Z,96.25
2023-05-01T20:28:42.635Z,96.00
2023-05-01T20:31:10.974Z,95.60
2023-05-01T20:33:38.920Z,94.32
2023-05-01T20:36:07.445Z,93.86
2023-05-01T20:38:42.068Z,94.73
2023-05-01T20:41:12.663Z,95.00
2023-05-01T20:43:42.279Z,93.50
2023-05-01T20:46:10.388Z,92.98
2023-05-01T20:48:38.688Z,92.49
2023-05-01T20:51:06.628Z,92.84
2023-05-01T20:53:34.831Z,93.03
2023-05-01T20:56:03.056Z,93.40
2023-05-01T20:58:31.497Z,93.18
2023-05-01T21:01:02.010Z,92.11
2023-05-01T21:03:30.191Z,91.16
2023-05-01T21:06:02.357Z,90.69
2023-05-01T21:08:31.619Z,91.44
2023-05-01T21:11:02.441Z,91.92
2023-05-01T21:13:33.505Z,91.37
2023-05-01T21:16:05.599Z,91.30
2023-05-01T21:18:35.400Z,90.74
2023-05-01T21:21:03.785Z,90.97
2023-05-01T21:23:31.851Z,91.09
2023-05-01T21:26:00.253Z,90.63
2023-05-01T21:28:28.479Z,91.13
2023-05-01T21:30:56.522Z,91.21
2023-05-01T21:33:26.162Z,91.01
2023-05-01T21:35:54.236Z,90.59
2023-05-01T21:38:22.526Z,89.18
2023-05-01T21:40:50.535Z,88.30
2023-05-01T21:43:20.679Z,88.32
2023-05-01T21:45:49.527Z,88.31
2023-05-01T21:48:20.394Z,88.06
2023-05-01T21:50:51.321Z,87.59
2023-05-01T21:53:19.655Z,88.62
2023-05-01T21:55:47.899Z,89.78
2023-05-01T21:58:16.473Z,89.20
2023-05-01T22:00:44.424Z,89.22
2023-05-01T22:03:13.477Z,89.77
2023-05-01T22:05:42.090Z,90.30
2023-05-01T22:08:11.732Z,89.72
2023-05-01T22:10:41.054Z,89.22
2023-05-01T22:13:08.982Z,90.01
2023-05-01T22:15:36.840Z,90.66
2023-05-01T22:18:04.990Z,92.33
2023-05-01T22:20:33.388Z,91.95
2023-05-01T22:23:01.534Z,91.17
2023-05-01T22:25:30.981Z,91.95
2023-05-01T22:28:00.554Z,92.68
2023-05-01T22:30:29.130Z,92.03
2023-05-01T22:32:57.296Z,90.97
2023-05-01T22:35:25.458Z,91.57
2023-05-01T22:37:56.125Z,90.83
2023-05-01T22:40:24.153Z,90.90
2023-05-01T22:42:53.593Z,91.88
2023-05-01T22:45:21.893Z,92.38
2023-05-01T22:47:50.097Z,94.31
2023-05-01T22:50:18.359Z,93.60
2023-05-01T22:52:47.001Z,93.21
2023-05-01T22:55:16.184Z,94.35
2023-05-01T22:57:44.624Z,93.52
2023-05-01T23:00:15.273Z,93.47
2023-05-01T23:02:43.611Z,92.64
2023-05-01T23:05:14.083Z,93.10
2023-05-01T23:07:42.762Z,92.46
2023-05-01T23:10:11.313Z,92.27
2023-05-01T23:12:43.428Z,92.34
2023-05-01T23:15:17.223Z,91.61
2023-05-01T23:17:45.607Z,94.04
2023-05-01T23:20:19.949Z,94.03
2023-05-01T23:22:48.721Z,96.23
2023-05-01T23:25:24.087Z,97.31
2023-05-01T23:27:54.105Z,97.42
2023-05-01T23:30:24.060Z,98.06
2023-05-01T23:32:52.434Z,98.11
2023-05-01T23:35:24.356Z,96.99
2023-05-01T23:37:52.681Z,95.69
2023-05-01T23:40:20.772Z,94.27
2023-05-01T23:42:49.901Z,94.75
2023-05-01T23:45:18.075Z,94.85
2023-05-01T23:47:47.734Z,93.82
2023-05-01T23:50:15.960Z,93.35
2023-05-01T23:52:44.036Z,92.73
2023-05-01T23:55:12.111Z,92.67
2023-05-01T23:57:42.875Z,92.05
